createdAt,value
2022-11-26T00:02:25.535Z,1.74
2022-11-26T00:05:33.686Z,1.76
2022-11-26T00:08:39.805Z,1.77
2022-11-26T00:11:46.066Z,1.78
2022-11-26T00:14:52.520Z,1.80
2022-11-26T00:17:59.179Z,1.77
2022-11-26T00:21:05.397Z,1.67
2022-11-26T00:24:26.064Z,1.61
2022-11-26T00:27:32.260Z,1.64
2022-11-26T00:30:38.326Z,1.67
2022-11-26T00:33:44.529Z,1.71
2022-11-26T00:36:50.811Z,1.73
2022-11-26T00:39:55.766Z,1.74
2022-11-26T00:43:02.454Z,1.74
2022-11-26T00:46:10.905Z,1.69
2022-11-26T00:49:17.894Z,1.67
2022-11-26T00:52:31.648Z,1.69
2022-11-26T00:55:40.230Z,1.72
2022-11-26T00:58:46.861Z,1.74
2022-11-26T01:01:52.998Z,1.75
2022-11-26T01:04:59.198Z,1.75
2022-11-26T01:08:20.133Z,1.75
2022-11-26T01:11:26.406Z,1.76
2022-11-26T01:14:30.938Z,1.77
2022-11-26T01:17:37.141Z,1.78
2022-11-26T01:20:43.573Z,1.77
2022-11-26T01:23:50.048Z,1.78
2022-11-26T01:26:56.304Z,1.77
2022-11-26T01:30:02.491Z,1.77
2022-11-26T01:33:08.718Z,1.78
2022-11-26T01:36:24.508Z,1.79
2022-11-26T01:39:30.624Z,1.79
2022-11-26T01:42:43.697Z,1.79
2022-11-26T01:45:49.878Z,1.80
2022-11-26T01:48:56.335Z,1.81
2022-11-26T01:52:04.863Z,1.81
2022-11-26T01:55:16.133Z,1.83
2022-11-26T01:58:25.992Z,1.83
2022-11-26T02:01:33.302Z,1.81
2022-11-26T02:04:42.913Z,1.79
2022-11-26T02:07:49.779Z,1.77
2022-11-26T02:10:56.149Z,1.76
2022-11-26T02:14:02.589Z,1.75
2022-11-26T02:17:21.033Z,1.74
2022-11-26T02:20:42.426Z,1.70
2022-11-26T02:24:19.323Z,1.63
2022-11-26T02:28:00.462Z,1.61
2022-11-26T02:31:11.043Z,1.64
2022-11-26T02:34:23.940Z,1.66
2022-11-26T02:37:37.012Z,1.66
2022-11-26T02:40:43.157Z,1.65
2022-11-26T02:43:49.781Z,1.66
2022-11-26T02:47:02.451Z,1.69
2022-11-26T02:50:13.501Z,1.71
2022-11-26T02:53:22.948Z,1.70
2022-11-26T02:56:30.469Z,1.67
2022-11-26T02:59:38.393Z,1.64
2022-11-26T03:02:48.577Z,1.66
2022-11-26T03:05:57.479Z,1.66
2022-11-26T03:09:03.905Z,1.65
2022-11-26T03:12:10.533Z,1.61
2022-11-26T03:15:16.849Z,1.60
2022-11-26T03:18:21.280Z,1.61
2022-11-26T03:21:27.390Z,1.63
2022-11-26T03:24:33.624Z,1.66
2022-11-26T03:27:39.854Z,1.67
2022-11-26T03:30:46.030Z,1.65
2022-11-26T03:33:52.248Z,1.63
2022-11-26T03:36:58.388Z,1.63
2022-11-26T03:40:04.906Z,1.68
2022-11-26T03:43:11.025Z,1.73
2022-11-26T03:46:17.265Z,1.76
2022-11-26T03:49:21.899Z,1.77
2022-11-26T03:52:28.065Z,1.76
2022-11-26T03:55:34.221Z,1.74
2022-11-26T03:58:40.393Z,1.73
2022-11-26T04:01:46.588Z,1.73
2022-11-26T04:04:51.358Z,1.75
2022-11-26T04:07:57.428Z,1.74
2022-11-26T04:11:04.010Z,1.71
2022-11-26T04:14:10.198Z,1.67
2022-11-26T04:17:16.300Z,1.64
2022-11-26T04:20:22.588Z,1.63
2022-11-26T04:23:27.144Z,1.66
2022-11-26T04:26:33.355Z,1.69
2022-11-26T04:29:39.563Z,1.70
2022-11-26T04:32:45.729Z,1.70
2022-11-26T04:35:52.630Z,1.70
2022-11-26T04:39:00.133Z,1.70
2022-11-26T04:42:06.328Z,1.73
2022-11-26T04:45:14.602Z,1.74
2022-11-26T04:48:20.957Z,1.73
2022-11-26T04:51:25.480Z,1.74
2022-11-26T04:54:31.643Z,1.73
2022-11-26T04:57:37.821Z,1.74
2022-11-26T05:00:47.374Z,1.74
2022-11-26T05:03:56.544Z,1.76
2022-11-26T05:07:02.776Z,1.76
2022-11-26T05:10:08.885Z,1.75
2022-11-26T05:13:14.836Z,1.74
2022-11-26T05:16:21.225Z,1.74
2022-11-26T05:19:27.677Z,1.74
2022-11-26T05:22:33.773Z,1.73
2022-11-26T05:25:40.033Z,1.73
2022-11-26T05:28:46.200Z,1.75
2022-11-26T05:31:52.438Z,1.76
2022-11-26T05:35:00.021Z,1.74
2022-11-26T05:38:07.024Z,1.74
2022-11-26T05:41:13.143Z,1.71
2022-11-26T05:44:19.315Z,1.70
2022-11-26T05:47:25.331Z,1.69
2022-11-26T05:50:31.561Z,1.67
2022-11-26T05:53:35.998Z,1.68
2022-11-26T05:56:42.068Z,1.68
2022-11-26T05:59:48.099Z,1.66
2022-11-26T06:02:54.232Z,1.65
2022-11-26T06:06:00.433Z,1.64
2022-11-26T06:09:07.142Z,1.64
2022-11-26T06:12:13.297Z,1.62
2022-11-26T06:15:19.504Z,1.61
2022-11-26T06:18:24.030Z,1.58
2022-11-26T06:21:30.085Z,1.55
2022-11-26T06:24:36.639Z,1.51
2022-11-26T06:27:43.435Z,1.50
2022-11-26T06:30:49.684Z,1.48
2022-11-26T06:33:57.650Z,1.45
2022-11-26T06:37:04.070Z,1.43
2022-11-26T06:40:17.135Z,1.41
2022-11-26T06:43:23.096Z,1.37
2022-11-26T06:46:29.549Z,1.37
2022-11-26T06:49:36.008Z,1.36
2022-11-26T06:52:42.060Z,1.34
2022-11-26T06:55:48.207Z,1.33
2022-11-26T06:58:56.441Z,1.33
2022-11-26T07:02:02.835Z,1.32
2022-11-26T07:05:09.785Z,1.33
2022-11-26T07:08:15.960Z,1.34
2022-11-26T07:11:22.653Z,1.34
2022-11-26T07:14:28.796Z,1.31
2022-11-26T07:17:34.901Z,1.30
2022-11-26T07:20:41.335Z,1.30
2022-11-26T07:23:47.983Z,1.31
2022-11-26T07:26:54.660Z,1.31
2022-11-26T07:30:00.729Z,1.30
2022-11-26T07:33:06.884Z,1.30
2022-11-26T07:36:17.908Z,1.33
2022-11-26T07:39:24.046Z,1.35
2022-11-26T07:42:33.383Z,1.37
2022-11-26T07:45:40.548Z,1.40
2022-11-26T07:48:47.145Z,1.44
2022-11-26T07:51:53.265Z,1.51
2022-11-26T07:54:59.524Z,1.58
2022-11-26T07:58:05.657Z,1.63
2022-11-26T08:01:14.857Z,1.69
2022-11-26T08:04:20.939Z,1.75
2022-11-26T08:07:29.430Z,1.82
2022-11-26T08:10:35.725Z,1.87
2022-11-26T08:13:41.901Z,1.92
2022-11-26T08:16:47.968Z,1.95
2022-11-26T08:19:54.185Z,2.00
2022-11-26T08:23:00.369Z,2.08
2022-11-26T08:26:23.863Z,2.23
2022-11-26T08:29:33.991Z,2.42
2022-11-26T08:32:40.201Z,2.59
2022-11-26T08:36:06.101Z,2.75
2022-11-26T08:39:14.011Z,2.92
2022-11-26T08:42:20.249Z,3.05
2022-11-26T08:45:26.410Z,3.13
2022-11-26T08:48:33.485Z,3.21
2022-11-26T08:51:39.671Z,3.29
2022-11-26T08:54:46.049Z,3.35
2022-11-26T08:57:52.381Z,3.44
2022-11-26T09:00:58.874Z,3.52
2022-11-26T09:04:06.357Z,3.60
2022-11-26T09:07:12.544Z,3.68
2022-11-26T09:10:18.804Z,3.75
2022-11-26T09:13:24.925Z,3.78
2022-11-26T09:16:31.278Z,3.82
2022-11-26T09:19:37.406Z,3.88
2022-11-26T09:22:43.552Z,3.94
2022-11-26T09:25:52.585Z,3.98
2022-11-26T09:28:58.713Z,4.00
2022-11-26T09:35:31.002Z,4.13
2022-11-26T09:38:37.743Z,4.26
2022-11-26T09:41:50.202Z,4.39
2022-11-26T09:45:10.107Z,4.52
2022-11-26T09:48:21.489Z,4.65
2022-11-26T09:51:28.617Z,4.79
2022-11-26T09:54:35.094Z,4.91
2022-11-26T09:57:45.066Z,5.03
2022-11-26T10:00:52.899Z,5.13
2022-11-26T10:03:59.632Z,5.25
2022-11-26T10:07:16.053Z,5.36
2022-11-26T10:10:28.757Z,5.45
2022-11-26T10:13:46.236Z,5.51
2022-11-26T10:17:15.115Z,5.56
2022-11-26T10:20:55.906Z,5.64
2022-11-26T10:24:06.077Z,5.69
2022-11-26T10:27:18.426Z,5.71
2022-11-26T10:30:26.513Z,5.75
2022-11-26T10:33:38.037Z,5.80
2022-11-26T10:36:46.780Z,5.83
2022-11-26T10:40:01.950Z,5.88
2022-11-26T10:43:20.109Z,5.93
2022-11-26T10:46:36.442Z,5.96
2022-11-26T10:49:42.880Z,6.00
2022-11-26T10:52:47.729Z,6.05
2022-11-26T10:55:55.517Z,6.10
2022-11-26T10:59:05.248Z,6.14
2022-11-26T11:02:28.713Z,6.14
2022-11-26T11:05:36.124Z,6.14
2022-11-26T11:08:42.495Z,6.14
2022-11-26T11:11:47.017Z,6.13
2022-11-26T11:14:53.697Z,6.15
2022-11-26T11:18:03.442Z,6.16
2022-11-26T11:21:17.001Z,6.16
2022-11-26T11:24:27.291Z,6.20
2022-11-26T11:27:43.656Z,6.25
2022-11-26T11:30:59.839Z,6.29
2022-11-26T11:34:15.062Z,6.32
2022-11-26T11:37:22.621Z,6.31
2022-11-26T11:40:31.150Z,6.32
2022-11-26T11:43:39.513Z,6.37
2022-11-26T11:47:04.035Z,6.42
2022-11-26T11:50:26.560Z,6.48
2022-11-26T11:53:40.290Z,6.52
2022-11-26T11:56:52.669Z,6.54
2022-11-26T12:00:13.815Z,6.55
2022-11-26T12:03:44.594Z,6.55
2022-11-26T12:07:01.806Z,6.55
2022-11-26T12:10:15.237Z,6.56
2022-11-26T12:13:24.837Z,6.58
2022-11-26T12:16:36.584Z,6.56
2022-11-26T12:19:48.487Z,6.54
2022-11-26T12:23:00.193Z,6.53
2022-11-26T12:26:12.694Z,6.53
2022-11-26T12:29:28.626Z,6.52
2022-11-26T12:32:41.279Z,6.50
2022-11-26T12:35:54.134Z,6.47
2022-11-26T12:39:03.581Z,6.45
2022-11-26T12:42:18.348Z,6.44
2022-11-26T12:45:40.766Z,6.43
2022-11-26T12:48:52.677Z,6.44
2022-11-26T12:52:10.461Z,6.45
2022-11-26T12:55:22.172Z,6.45
2022-11-26T12:58:46.128Z,6.46
2022-11-26T13:01:52.445Z,6.45
2022-11-26T13:04:58.299Z,6.43
2022-11-26T13:08:24.889Z,6.42
2022-11-26T13:11:41.638Z,6.39
2022-11-26T13:14:54.357Z,6.38
2022-11-26T13:18:02.346Z,6.37
2022-11-26T13:21:23.089Z,6.37
2022-11-26T13:24:52.113Z,6.36
2022-11-26T13:28:08.901Z,6.33
2022-11-26T13:31:33.131Z,6.31
2022-11-26T13:34:59.273Z,6.32
2022-11-26T13:38:11.111Z,6.33
2022-11-26T13:41:29.202Z,6.33
2022-11-26T13:45:05.736Z,6.31
2022-11-26T13:48:17.659Z,6.31
2022-11-26T13:51:29.070Z,6.30
2022-11-26T13:54:43.378Z,6.29
2022-11-26T13:57:53.557Z,6.27
2022-11-26T14:01:19.988Z,6.27
2022-11-26T14:04:53.034Z,6.27
2022-11-26T14:08:38.729Z,6.25
2022-11-26T14:12:00.606Z,6.22
2022-11-26T14:15:39.724Z,6.20
2022-11-26T14:19:08.521Z,6.16
2022-11-26T14:22:31.183Z,6.14
2022-11-26T14:25:41.587Z,6.13
2022-11-26T14:28:48.715Z,6.13
2022-11-26T14:31:56.263Z,6.13
2022-11-26T14:35:02.533Z,6.11
2022-11-26T14:38:23.287Z,6.08
2022-11-26T14:41:29.086Z,6.09
2022-11-26T14:44:35.424Z,6.08
2022-11-26T14:47:44.338Z,6.06
2022-11-26T14:50:50.856Z,6.05
2022-11-26T14:53:58.136Z,6.04
2022-11-26T14:57:08.937Z,6.01
2022-11-26T15:00:27.181Z,5.99
2022-11-26T15:03:33.853Z,5.98
2022-11-26T15:06:45.794Z,5.98
2022-11-26T15:10:03.426Z,5.96
2022-11-26T15:13:17.970Z,5.91
2022-11-26T15:16:33.686Z,5.89
2022-11-26T15:19:42.203Z,5.86
2022-11-26T15:22:53.109Z,5.84
2022-11-26T15:26:01.287Z,5.85
2022-11-26T15:29:31.317Z,5.86
2022-11-26T15:32:37.482Z,5.88
2022-11-26T15:35:44.066Z,5.89
2022-11-26T15:39:08.396Z,5.88
2022-11-26T15:42:30.601Z,5.88
2022-11-26T15:45:42.452Z,5.88
2022-11-26T15:48:52.725Z,5.86
2022-11-26T15:52:03.704Z,5.85
2022-11-26T15:55:20.923Z,5.85
2022-11-26T15:58:31.028Z,5.85
2022-11-26T16:01:38.681Z,5.86
2022-11-26T16:04:50.108Z,5.87
2022-11-26T16:08:04.572Z,5.85
2022-11-26T16:11:21.542Z,5.86
2022-11-26T16:14:33.173Z,5.87
2022-11-26T16:17:40.400Z,5.85
2022-11-26T16:20:46.993Z,5.84
2022-11-26T16:23:59.257Z,5.85
2022-11-26T16:27:07.828Z,5.87
2022-11-26T16:30:18.041Z,5.88
2022-11-26T16:33:24.225Z,5.90
2022-11-26T16:36:35.372Z,5.88
2022-11-26T16:39:41.483Z,5.87
2022-11-26T16:42:48.183Z,5.86
2022-11-26T16:45:56.848Z,5.89
2022-11-26T16:49:02.979Z,5.91
2022-11-26T16:52:15.975Z,5.93
2022-11-26T16:55:23.829Z,5.95
2022-11-26T16:58:32.906Z,5.96
2022-11-26T17:01:38.982Z,5.96
2022-11-26T17:04:45.037Z,5.96
2022-11-26T17:07:54.095Z,5.96
2022-11-26T17:11:00.428Z,5.97
2022-11-26T17:14:04.958Z,5.98
2022-11-26T17:17:13.421Z,5.98
2022-11-26T17:20:22.377Z,5.97
2022-11-26T17:23:29.247Z,5.97
2022-11-26T17:26:35.361Z,5.98
2022-11-26T17:29:43.031Z,5.99
2022-11-26T17:32:49.641Z,6.00
2022-11-26T17:35:55.854Z,6.01
2022-11-26T17:39:01.989Z,5.99
2022-11-26T17:42:08.802Z,5.99
2022-11-26T17:45:15.708Z,5.98
2022-11-26T17:48:26.457Z,5.97
2022-11-26T17:51:32.898Z,5.97
2022-11-26T17:54:39.169Z,5.97
2022-11-26T17:57:43.745Z,5.98
2022-11-26T18:00:49.829Z,5.96
2022-11-26T18:03:55.869Z,5.93
2022-11-26T18:07:08.071Z,5.90
2022-11-26T18:10:16.317Z,5.86
2022-11-26T18:13:22.353Z,5.83
2022-11-26T18:16:28.615Z,5.83
2022-11-26T18:19:33.184Z,5.81
2022-11-26T18:22:39.293Z,5.76
2022-11-26T18:25:45.728Z,5.74
2022-11-26T18:28:51.785Z,5.71
2022-11-26T18:31:57.944Z,5.66
2022-11-26T18:35:04.240Z,5.62
2022-11-26T18:38:09.749Z,5.59
2022-11-26T18:41:16.274Z,5.56
2022-11-26T18:44:22.524Z,5.52
2022-11-26T18:47:28.680Z,5.49
2022-11-26T18:50:34.775Z,5.40
2022-11-26T18:53:41.621Z,5.27
2022-11-26T18:56:47.762Z,5.18
2022-11-26T18:59:53.985Z,5.09
2022-11-26T19:03:00.134Z,5.01
2022-11-26T19:06:10.143Z,4.95
2022-11-26T19:09:19.223Z,4.87
2022-11-26T19:12:25.377Z,4.82
2022-11-26T19:15:31.561Z,4.79
2022-11-26T19:18:38.017Z,4.79
2022-11-26T19:21:44.238Z,4.82
2022-11-26T19:24:50.789Z,4.85
2022-11-26T19:28:00.967Z,4.89
2022-11-26T19:31:12.198Z,4.93
2022-11-26T19:34:18.685Z,4.96
2022-11-26T19:37:24.749Z,4.99
2022-11-26T19:40:31.273Z,5.01
2022-11-26T19:43:40.367Z,5.04
2022-11-26T19:46:48.316Z,5.05
2022-11-26T19:49:54.417Z,5.06
2022-11-26T19:53:00.648Z,5.06
2022-11-26T19:56:06.327Z,5.06
2022-11-26T19:59:12.658Z,5.07
2022-11-26T20:02:17.172Z,5.07
2022-11-26T20:05:23.358Z,5.07
2022-11-26T20:08:29.506Z,5.06
2022-11-26T20:11:34.298Z,5.05
2022-11-26T20:14:40.445Z,5.04
2022-11-26T20:17:46.586Z,5.03
2022-11-26T20:21:01.781Z,5.03
2022-11-26T20:24:10.691Z,5.02
2022-11-26T20:27:16.877Z,5.02
2022-11-26T20:30:24.954Z,5.01
2022-11-26T20:33:31.006Z,5.02
2022-11-26T20:36:37.850Z,5.03
2022-11-26T20:39:44.110Z,5.04
2022-11-26T20:42:50.321Z,5.03
2022-11-26T20:46:03.948Z,5.03
2022-11-26T20:49:11.809Z,5.03
2022-11-26T20:52:19.728Z,5.02
2022-11-26T20:55:26.090Z,5.02
2022-11-26T20:58:30.813Z,5.02
2022-11-26T21:01:37.202Z,5.00
2022-11-26T21:04:43.325Z,5.00
2022-11-26T21:07:50.928Z,5.01
2022-11-26T21:10:57.094Z,5.00
2022-11-26T21:14:04.061Z,5.02
2022-11-26T21:17:10.400Z,5.01
2022-11-26T21:20:17.227Z,5.01
2022-11-26T21:23:23.369Z,5.01
2022-11-26T21:26:29.633Z,5.02
2022-11-26T21:29:34.089Z,5.03
2022-11-26T21:32:40.277Z,5.03
2022-11-26T21:35:46.363Z,5.04
2022-11-26T21:38:52.668Z,5.04
2022-11-26T21:41:57.160Z,5.03
2022-11-26T21:45:03.225Z,5.02
2022-11-26T21:48:09.765Z,5.01
2022-11-26T21:51:17.675Z,5.00
2022-11-26T21:54:23.813Z,4.99
2022-11-26T21:57:33.568Z,4.98
2022-11-26T22:00:39.724Z,4.98
2022-11-26T22:03:48.507Z,4.96
2022-11-26T22:06:54.614Z,4.94
2022-11-26T22:09:59.300Z,4.93
2022-11-26T22:13:05.452Z,4.91
2022-11-26T22:16:13.327Z,4.83
2022-11-26T22:19:19.758Z,4.73
2022-11-26T22:22:24.301Z,4.66
2022-11-26T22:25:30.413Z,4.51
2022-11-26T22:28:38.665Z,4.44
2022-11-26T22:31:45.535Z,4.39
2022-11-26T22:34:51.610Z,4.26
2022-11-26T22:37:57.830Z,4.14
2022-11-26T22:41:05.818Z,4.10
2022-11-26T22:44:13.266Z,4.06
2022-11-26T22:47:19.531Z,4.02
2022-11-26T22:50:25.973Z,3.97
2022-11-26T22:53:33.417Z,3.93
2022-11-26T22:56:39.906Z,3.84
2022-11-26T22:59:45.977Z,3.82
2022-11-26T23:02:52.184Z,3.78
2022-11-26T23:05:56.946Z,3.73
2022-11-26T23:09:04.521Z,3.67
2022-11-26T23:12:10.965Z,3.68
2022-11-26T23:15:17.360Z,3.72
2022-11-26T23:18:21.987Z,3.76
2022-11-26T23:21:29.933Z,3.77
2022-11-26T23:24:35.991Z,3.77
2022-11-26T23:27:42.119Z,3.79
2022-11-26T23:30:48.218Z,3.83
2022-11-26T23:33:54.425Z,3.83
2022-11-26T23:37:00.471Z,3.87
2022-11-26T23:40:08.133Z,3.89
2022-11-26T23:43:14.286Z,3.89
2022-11-26T23:46:22.124Z,3.85
2022-11-26T23:49:28.405Z,3.86
2022-11-26T23:52:34.502Z,3.87
2022-11-26T23:55:40.630Z,3.87
2022-11-26T23:58:49.106Z,3.89
